createdAt,value
2019-04-14T00:02:25.033Z,2.60
2019-04-14T00:05:06.180Z,2.60
2019-04-14T00:07:42.683Z,2.60
2019-04-14T00:10:31.163Z,2.60
2019-04-14T00:13:06.798Z,2.70
2019-04-14T00:15:46.728Z,2.60
2019-04-14T00:18:25.058Z,2.60
2019-04-14T00:21:00.564Z,2.50
2019-04-14T00:23:36.973Z,2.60
2019-04-14T00:26:27.260Z,2.50
2019-04-14T00:29:04.625Z,2.50
2019-04-14T00:31:41.190Z,2.50
2019-04-14T00:34:35.342Z,2.60
2019-04-14T00:37:38.750Z,2.50
2019-04-14T00:40:23.547Z,2.40
2019-04-14T00:43:07.619Z,2.30
2019-04-14T00:45:53.570Z,2.30
2019-04-14T00:48:28.059Z,2.20
2019-04-14T00:51:03.438Z,2.10
2019-04-14T00:53:40.232Z,2.20
2019-04-14T00:56:15.633Z,2.30
2019-04-14T00:58:51.824Z,2.40
2019-04-14T01:01:27.165Z,2.50
2019-04-14T01:04:03.456Z,2.60
2019-04-14T01:06:38.808Z,2.60
2019-04-14T01:09:15.247Z,2.60
2019-04-14T01:11:50.968Z,2.70
2019-04-14T01:14:27.663Z,2.70
2019-04-14T01:17:03.088Z,2.70
2019-04-14T01:19:39.436Z,2.70
2019-04-14T01:22:14.798Z,2.70
2019-04-14T01:24:51.070Z,2.80
2019-04-14T01:27:27.666Z,2.80
2019-04-14T01:30:04.682Z,2.90
2019-04-14T01:32:40.092Z,2.90
2019-04-14T01:35:18.186Z,3.00
2019-04-14T01:37:55.000Z,3.10
2019-04-14T01:40:31.462Z,3.10
2019-04-14T01:43:08.012Z,3.10
2019-04-14T01:45:44.859Z,3.10
2019-04-14T01:48:21.399Z,3.10
2019-04-14T01:51:18.800Z,3.10
2019-04-14T01:54:23.430Z,3.10
2019-04-14T01:57:17.488Z,3.10
2019-04-14T01:59:52.930Z,3.10
2019-04-14T02:02:29.127Z,3.10
2019-04-14T02:05:05.968Z,3.10
2019-04-14T02:07:41.461Z,3.00
2019-04-14T02:10:17.272Z,3.10
2019-04-14T02:12:52.627Z,3.10
2019-04-14T02:15:28.699Z,3.10
2019-04-14T02:18:05.492Z,3.10
2019-04-14T02:20:42.451Z,3.00
2019-04-14T02:23:19.153Z,3.10
2019-04-14T02:25:55.770Z,3.10
2019-04-14T02:28:33.102Z,3.00
2019-04-14T02:31:24.571Z,3.00
2019-04-14T02:34:19.167Z,3.00
2019-04-14T02:36:58.722Z,3.10
2019-04-14T02:39:31.152Z,3.00
2019-04-14T02:42:27.752Z,3.00
2019-04-14T02:44:47.794Z,3.10
2019-04-14T02:49:59.145Z,3.10
2019-04-14T02:52:35.261Z,3.10
2019-04-14T02:57:44.829Z,3.10
2019-04-14T03:00:23.934Z,3.20
2019-04-14T03:02:56.414Z,3.10
2019-04-14T03:05:49.072Z,3.10
2019-04-14T03:08:22.278Z,3.20
2019-04-14T03:10:57.017Z,3.10
2019-04-14T03:13:45.069Z,3.20
2019-04-14T03:22:09.240Z,2.90
2019-04-14T03:24:37.391Z,2.70
2019-04-14T03:27:40.214Z,2.70
2019-04-14T03:30:39.523Z,2.60
2019-04-14T03:33:48.283Z,2.60
2019-04-14T03:38:14.617Z,2.50
2019-04-14T03:40:48.978Z,2.60
2019-04-14T03:46:07.290Z,2.60
2019-04-14T03:53:48.966Z,2.70
2019-04-14T03:56:36.377Z,2.60
2019-04-14T03:59:12.725Z,2.60
2019-04-14T04:01:48.501Z,2.60
2019-04-14T04:04:25.011Z,2.40
2019-04-14T04:07:01.745Z,2.30
2019-04-14T04:09:41.405Z,2.20
2019-04-14T04:12:18.169Z,2.20
2019-04-14T04:14:53.526Z,2.20
2019-04-14T04:17:42.942Z,2.20
2019-04-14T04:20:37.304Z,2.20
2019-04-14T04:23:38.190Z,2.10
2019-04-14T04:26:38.698Z,2.10
2019-04-14T04:29:30.959Z,2.00
2019-04-14T04:32:25.511Z,1.90
2019-04-14T04:35:04.680Z,1.90
2019-04-14T04:37:56.353Z,2.00
2019-04-14T04:40:33.220Z,2.00
2019-04-14T04:43:08.638Z,2.00
2019-04-14T04:45:45.153Z,2.10
2019-04-14T04:48:21.673Z,2.10
2019-04-14T04:50:58.456Z,2.00
2019-04-14T04:53:33.894Z,2.00
2019-04-14T04:56:10.021Z,2.10
2019-04-14T04:58:45.654Z,2.20
2019-04-14T05:01:21.110Z,2.20
2019-04-14T05:03:56.526Z,2.20
2019-04-14T05:07:03.647Z,2.30
2019-04-14T05:09:58.047Z,2.30
2019-04-14T05:12:43.417Z,2.40
2019-04-14T05:15:40.848Z,2.50
2019-04-14T05:18:27.422Z,2.40
2019-04-14T05:21:03.851Z,2.40
2019-04-14T05:23:39.319Z,2.50
2019-04-14T05:26:15.566Z,2.50
2019-04-14T05:28:50.983Z,2.60
2019-04-14T05:31:27.844Z,2.60
2019-04-14T05:34:04.397Z,2.50
2019-04-14T05:36:39.719Z,2.40
2019-04-14T05:39:16.189Z,2.40
2019-04-14T05:42:00.493Z,2.40
2019-04-14T05:44:29.590Z,2.50
2019-04-14T05:47:06.430Z,2.60
2019-04-14T05:49:47.064Z,2.70
2019-04-14T05:52:19.190Z,2.80
2019-04-14T05:54:55.704Z,2.90
2019-04-14T05:57:32.635Z,2.90
2019-04-14T06:00:12.342Z,2.90
2019-04-14T06:02:48.521Z,3.00
2019-04-14T06:05:25.269Z,3.00
2019-04-14T06:08:00.727Z,3.10
2019-04-14T06:10:36.230Z,3.10
2019-04-14T06:13:11.907Z,3.10
2019-04-14T06:15:47.484Z,3.20
2019-04-14T06:18:22.880Z,3.20
2019-04-14T06:20:58.315Z,3.20
2019-04-14T06:23:33.850Z,3.30
2019-04-14T06:26:09.244Z,3.30
2019-04-14T06:28:44.630Z,3.40
2019-04-14T06:31:50.784Z,3.30
2019-04-14T06:34:31.267Z,3.30
2019-04-14T06:37:21.075Z,3.40
2019-04-14T06:39:56.513Z,3.30
2019-04-14T06:42:35.036Z,3.40
2019-04-14T06:45:10.814Z,3.30
2019-04-14T06:47:46.305Z,3.40
2019-04-14T06:50:21.669Z,3.40
2019-04-14T06:52:57.119Z,3.30
2019-04-14T06:55:32.473Z,3.40
2019-04-14T06:58:07.989Z,3.50
2019-04-14T07:00:43.387Z,3.60
2019-04-14T07:03:18.771Z,3.70
2019-04-14T07:05:54.139Z,3.80
2019-04-14T07:08:29.997Z,3.70
2019-04-14T07:11:05.389Z,3.90
2019-04-14T07:13:40.773Z,3.90
2019-04-14T07:16:16.161Z,4.00
2019-04-14T07:18:51.568Z,4.20
2019-04-14T07:21:26.923Z,4.30
2019-04-14T07:24:02.319Z,4.50
2019-04-14T07:26:37.813Z,4.60
2019-04-14T07:29:14.767Z,4.70
2019-04-14T07:32:09.184Z,4.80
2019-04-14T07:35:06.708Z,4.70
2019-04-14T07:38:19.437Z,4.60
2019-04-14T07:41:13.448Z,4.80
2019-04-14T07:43:59.064Z,5.00
2019-04-14T07:46:42.453Z,5.30
2019-04-14T07:49:36.750Z,5.50
2019-04-14T07:52:29.419Z,5.50
2019-04-14T07:55:24.062Z,5.50
2019-04-14T07:58:31.495Z,5.30
2019-04-14T08:01:15.960Z,5.40
2019-04-14T08:04:04.230Z,5.50
2019-04-14T08:06:39.637Z,5.60
2019-04-14T08:09:15.156Z,5.80
2019-04-14T08:11:50.516Z,6.00
2019-04-14T08:14:25.897Z,6.10
2019-04-14T08:17:01.344Z,6.10
2019-04-14T08:19:36.849Z,6.00
2019-04-14T08:22:12.215Z,6.10
2019-04-14T08:24:47.774Z,6.00
2019-04-14T08:27:23.224Z,5.80
2019-04-14T08:29:58.776Z,5.70
2019-04-14T08:32:34.126Z,5.60
2019-04-14T08:35:09.759Z,5.50
2019-04-14T08:37:45.115Z,5.50
2019-04-14T08:40:20.584Z,5.40
2019-04-14T08:43:13.079Z,5.40
2019-04-14T08:46:07.419Z,5.60
2019-04-14T08:49:10.805Z,5.80
2019-04-14T08:52:05.794Z,6.00
2019-04-14T08:54:54.158Z,6.20
2019-04-14T08:57:57.554Z,6.40
2019-04-14T09:00:57.919Z,6.70
2019-04-14T09:03:50.920Z,6.70
2019-04-14T09:06:36.102Z,6.70
2019-04-14T09:09:36.494Z,6.70
2019-04-14T09:12:21.756Z,6.80
2019-04-14T09:14:57.778Z,6.90
2019-04-14T09:17:33.234Z,7.10
2019-04-14T09:20:08.741Z,7.20
2019-04-14T09:22:44.116Z,7.20
2019-04-14T09:25:19.794Z,7.20
2019-04-14T09:27:55.144Z,7.40
2019-04-14T09:30:30.597Z,7.30
2019-04-14T09:33:05.962Z,7.30
2019-04-14T09:35:41.336Z,7.60
2019-04-14T09:38:21.847Z,7.70
2019-04-14T09:40:57.244Z,8.10
2019-04-14T09:43:32.611Z,8.40
2019-04-14T09:46:08.154Z,8.20
2019-04-14T09:48:43.498Z,8.20
2019-04-14T09:51:19.013Z,8.30
2019-04-14T09:53:54.371Z,8.40
2019-04-14T09:56:29.751Z,8.60
2019-04-14T09:59:08.463Z,8.60
2019-04-14T10:01:43.931Z,8.50
2019-04-14T10:04:19.347Z,8.40
2019-04-14T10:06:54.765Z,8.40
2019-04-14T10:09:31.111Z,8.40
2019-04-14T10:12:06.657Z,8.60
2019-04-14T10:14:42.075Z,8.50
2019-04-14T10:17:17.477Z,8.30
2019-04-14T10:19:52.839Z,8.40
2019-04-14T10:22:34.278Z,8.40
2019-04-14T10:25:05.936Z,8.50
2019-04-14T10:27:41.328Z,8.90
2019-04-14T10:30:16.714Z,9.20
2019-04-14T10:32:53.128Z,9.20
2019-04-14T10:35:28.477Z,9.10
2019-04-14T10:38:03.845Z,9.10
2019-04-14T10:40:39.234Z,9.00
2019-04-14T10:43:14.630Z,9.00
2019-04-14T10:45:50.016Z,9.00
2019-04-14T10:48:25.550Z,9.10
2019-04-14T10:51:00.944Z,9.30
2019-04-14T10:53:36.446Z,9.40
2019-04-14T10:56:19.346Z,9.30
2019-04-14T10:58:54.782Z,9.50
2019-04-14T11:01:30.146Z,9.60
2019-04-14T11:04:07.992Z,9.70
2019-04-14T11:06:52.011Z,9.80
2019-04-14T11:09:27.585Z,9.80
2019-04-14T11:12:03.046Z,10.00
2019-04-14T11:14:38.452Z,10.20
2019-04-14T11:17:13.815Z,10.50
2019-04-14T11:19:49.237Z,10.40
2019-04-14T11:22:24.696Z,10.20
2019-04-14T11:25:00.130Z,10.10
2019-04-14T11:27:35.502Z,10.30
2019-04-14T11:30:13.149Z,10.10
2019-04-14T11:33:11.402Z,10.20
2019-04-14T11:36:11.793Z,10.40
2019-04-14T11:39:00.437Z,10.40
2019-04-14T11:41:37.825Z,10.40
2019-04-14T11:44:13.149Z,10.30
2019-04-14T11:46:48.548Z,10.50
2019-04-14T11:49:23.933Z,10.60
2019-04-14T11:51:59.338Z,10.60
2019-04-14T11:54:34.712Z,10.50
2019-04-14T11:57:10.124Z,10.50
2019-04-14T11:59:53.210Z,10.70
2019-04-14T12:02:59.555Z,10.90
2019-04-14T12:05:46.631Z,11.00
2019-04-14T12:08:55.998Z,11.00
2019-04-14T12:11:31.362Z,11.20
2019-04-14T12:14:06.764Z,11.10
2019-04-14T12:16:44.906Z,11.20
2019-04-14T12:19:20.354Z,11.20
2019-04-14T12:22:07.787Z,11.40
2019-04-14T12:24:32.750Z,11.40
2019-04-14T12:27:08.129Z,11.60
2019-04-14T12:29:43.710Z,11.80
2019-04-14T12:32:19.791Z,12.20
2019-04-14T12:34:55.200Z,12.30
2019-04-14T12:37:30.677Z,12.10
2019-04-14T12:40:07.391Z,11.80
2019-04-14T12:43:04.731Z,11.50
2019-04-14T12:45:59.072Z,11.60
2019-04-14T12:48:51.705Z,11.90
2019-04-14T12:51:31.067Z,12.40
2019-04-14T12:54:06.684Z,12.90
2019-04-14T12:56:43.544Z,13.10
2019-04-14T12:59:23.158Z,13.20
2019-04-14T13:02:13.209Z,13.00
2019-04-14T13:04:48.611Z,13.00
2019-04-14T13:07:24.014Z,12.90
2019-04-14T13:09:59.482Z,13.20
2019-04-14T13:12:34.894Z,13.40
2019-04-14T13:15:10.569Z,13.50
2019-04-14T13:17:45.989Z,13.40
2019-04-14T13:20:21.364Z,13.50
2019-04-14T13:22:56.820Z,13.50
2019-04-14T13:25:32.210Z,13.40
2019-04-14T13:28:07.652Z,13.60
2019-04-14T13:30:45.272Z,13.70
2019-04-14T13:33:20.682Z,13.60
2019-04-14T13:35:56.063Z,13.30
2019-04-14T13:38:31.456Z,13.00
2019-04-14T13:41:06.878Z,12.90
2019-04-14T13:43:43.229Z,12.60
2019-04-14T13:46:18.903Z,12.50
2019-04-14T13:48:55.367Z,12.70
2019-04-14T13:51:30.770Z,12.90
2019-04-14T13:54:06.232Z,13.00
2019-04-14T13:56:41.588Z,13.20
2019-04-14T13:59:20.137Z,13.00
2019-04-14T14:01:55.501Z,13.00
2019-04-14T14:04:30.810Z,13.00
2019-04-14T14:07:06.665Z,12.70
2019-04-14T14:09:42.053Z,12.50
2019-04-14T14:12:40.883Z,12.40
2019-04-14T14:15:33.743Z,12.10
2019-04-14T14:18:37.179Z,12.20
2019-04-14T14:21:37.535Z,12.70
2019-04-14T14:24:46.787Z,13.00
2019-04-14T14:27:22.185Z,12.80
2019-04-14T14:29:57.551Z,12.30
2019-04-14T14:32:35.192Z,12.00
2019-04-14T14:35:10.613Z,11.80
2019-04-14T14:37:46.146Z,12.00
2019-04-14T14:40:21.506Z,12.30
2019-04-14T14:42:57.042Z,12.40
2019-04-14T14:45:49.976Z,12.30
2019-04-14T14:48:31.927Z,12.10
2019-04-14T14:51:12.591Z,12.00
2019-04-14T14:53:48.004Z,12.10
2019-04-14T14:56:23.387Z,12.40
2019-04-14T14:58:58.912Z,12.60
2019-04-14T15:01:34.240Z,12.90
2019-04-14T15:04:10.444Z,12.80
2019-04-14T15:06:46.046Z,12.50
2019-04-14T15:09:22.417Z,12.10
2019-04-14T15:11:57.700Z,11.90
2019-04-14T15:14:33.280Z,12.10
2019-04-14T15:17:08.651Z,12.30
2019-04-14T15:19:44.010Z,12.30
2019-04-14T15:22:19.446Z,12.20
2019-04-14T15:24:54.841Z,12.10
2019-04-14T15:27:30.188Z,12.10
2019-04-14T15:30:07.333Z,12.00
2019-04-14T15:32:42.696Z,12.00
2019-04-14T15:35:18.075Z,12.10
2019-04-14T15:37:53.415Z,12.20
2019-04-14T15:40:28.869Z,12.20
2019-04-14T15:43:04.222Z,12.20
2019-04-14T15:45:39.649Z,12.10
2019-04-14T15:48:15.103Z,12.20
2019-04-14T15:50:50.505Z,12.20
2019-04-14T15:53:37.328Z,12.30
2019-04-14T15:56:03.054Z,12.30
2019-04-14T15:58:52.626Z,12.30
2019-04-14T16:01:53.317Z,12.20
2019-04-14T16:04:45.183Z,12.10
2019-04-14T16:07:38.212Z,12.00
2019-04-14T16:10:32.610Z,12.00
2019-04-14T16:13:14.494Z,11.80
2019-04-14T16:15:54.656Z,11.50
2019-04-14T16:19:11.395Z,11.30
2019-04-14T16:21:46.878Z,11.10
2019-04-14T16:24:22.305Z,11.00
2019-04-14T16:27:05.766Z,11.00
2019-04-14T16:30:01.544Z,11.10
2019-04-14T16:32:56.041Z,11.20
2019-04-14T16:35:31.477Z,11.40
2019-04-14T16:38:07.057Z,11.30
2019-04-14T16:40:42.412Z,11.30
2019-04-14T16:43:17.876Z,11.40
2019-04-14T16:45:53.606Z,11.40
2019-04-14T16:48:29.070Z,11.40
2019-04-14T16:51:05.151Z,11.40
2019-04-14T16:53:46.582Z,11.30
2019-04-14T16:56:52.694Z,11.10
2019-04-14T16:59:28.036Z,11.00
2019-04-14T17:02:10.764Z,10.80
2019-04-14T17:04:42.303Z,10.70
2019-04-14T17:07:17.713Z,10.60
2019-04-14T17:09:53.206Z,10.60
2019-04-14T17:12:28.631Z,10.50
2019-04-14T17:15:14.133Z,10.40
2019-04-14T17:18:07.428Z,10.40
2019-04-14T17:21:32.882Z,10.30
2019-04-14T17:24:30.510Z,10.30
2019-04-14T17:27:29.474Z,10.20
2019-04-14T17:30:28.111Z,10.20
2019-04-14T17:33:14.505Z,10.00
2019-04-14T17:36:08.992Z,10.00
2019-04-14T17:39:08.124Z,10.00
2019-04-14T17:42:16.242Z,9.80
2019-04-14T17:45:10.556Z,9.80
2019-04-14T17:48:04.889Z,9.70
2019-04-14T17:51:03.608Z,9.60
2019-04-14T17:54:04.053Z,9.50
2019-04-14T17:57:11.388Z,9.50
2019-04-14T18:00:14.574Z,9.40
2019-04-14T18:02:59.885Z,9.30
2019-04-14T18:05:42.017Z,9.30
2019-04-14T18:08:25.309Z,9.20
2019-04-14T18:11:19.655Z,9.10
2019-04-14T18:14:06.138Z,9.00
2019-04-14T18:17:06.044Z,9.00
2019-04-14T18:19:54.700Z,8.90
2019-04-14T18:22:30.052Z,8.80
2019-04-14T18:25:06.438Z,8.70
2019-04-14T18:28:06.654Z,8.70
2019-04-14T18:30:48.571Z,8.60
2019-04-14T18:33:44.781Z,8.50
2019-04-14T18:36:35.703Z,8.40
2019-04-14T18:39:28.383Z,8.40
2019-04-14T18:42:14.190Z,8.20
2019-04-14T18:44:59.727Z,8.30
2019-04-14T18:47:47.268Z,8.10
2019-04-14T18:50:40.571Z,8.10
2019-04-14T18:53:20.073Z,8.00
2019-04-14T18:56:17.418Z,8.00
2019-04-14T18:59:24.098Z,7.90
2019-04-14T19:01:59.619Z,7.90
2019-04-14T19:04:34.993Z,7.80
2019-04-14T19:07:10.440Z,7.80
2019-04-14T19:09:45.963Z,7.70
2019-04-14T19:12:44.422Z,7.70
2019-04-14T19:15:41.719Z,7.60
2019-04-14T19:18:25.680Z,7.50
2019-04-14T19:21:06.172Z,7.50
2019-04-14T19:23:42.160Z,7.40
2019-04-14T19:26:17.531Z,7.30
2019-04-14T19:28:52.940Z,7.20
2019-04-14T19:31:28.332Z,7.10
2019-04-14T19:34:04.335Z,7.10
2019-04-14T19:36:39.700Z,7.10
2019-04-14T19:39:15.191Z,7.10
2019-04-14T19:41:50.610Z,7.10
2019-04-14T19:44:26.166Z,7.10
2019-04-14T19:47:01.500Z,7.10
2019-04-14T19:49:36.954Z,7.00
2019-04-14T19:52:12.536Z,7.00
2019-04-14T19:54:48.326Z,6.90
2019-04-14T19:57:23.688Z,6.90
2019-04-14T19:59:59.085Z,6.90
2019-04-14T20:02:34.531Z,7.00
2019-04-14T20:05:10.016Z,6.90
2019-04-14T20:07:45.386Z,6.90
2019-04-14T20:10:20.914Z,6.90
2019-04-14T20:12:56.282Z,6.90
2019-04-14T20:15:50.643Z,6.90
2019-04-14T20:18:45.225Z,6.80
2019-04-14T20:21:51.855Z,6.80
2019-04-14T20:25:01.467Z,6.80
2019-04-14T20:28:04.528Z,6.80
2019-04-14T20:30:46.515Z,6.70
2019-04-14T20:33:21.934Z,6.70
2019-04-14T20:35:57.270Z,6.70
2019-04-14T20:38:34.241Z,6.70
2019-04-14T20:41:09.698Z,6.70
2019-04-14T20:43:45.224Z,6.70
2019-04-14T20:46:20.563Z,6.70
2019-04-14T20:48:56.013Z,6.60
2019-04-14T20:51:31.372Z,6.60
2019-04-14T20:54:06.714Z,6.60
2019-04-14T20:56:42.086Z,6.50
2019-04-14T20:59:21.587Z,6.50
2019-04-14T21:02:10.710Z,6.50
2019-04-14T21:05:11.021Z,6.50
2019-04-14T21:08:08.588Z,6.50
2019-04-14T21:10:50.448Z,6.50
2019-04-14T21:13:35.166Z,6.40
2019-04-14T21:16:15.643Z,6.40
2019-04-14T21:18:54.056Z,6.40
2019-04-14T21:21:42.742Z,6.40
2019-04-14T21:24:37.034Z,6.30
2019-04-14T21:27:29.035Z,6.40
2019-04-14T21:30:43.810Z,6.30
2019-04-14T21:33:38.140Z,6.30
2019-04-14T21:36:20.977Z,6.20
2019-04-14T21:39:13.965Z,6.10
2019-04-14T21:41:51.024Z,6.10
2019-04-14T21:44:26.463Z,6.10
2019-04-14T21:47:02.119Z,6.00
2019-04-14T21:49:37.541Z,6.00
2019-04-14T21:52:29.594Z,6.00
2019-04-14T21:55:05.331Z,6.00
2019-04-14T21:58:00.755Z,6.00
2019-04-14T22:01:40.074Z,5.80
2019-04-14T22:04:45.309Z,5.90
2019-04-14T22:07:42.423Z,5.90
2019-04-14T22:10:35.390Z,5.90
2019-04-14T22:13:10.764Z,5.80
2019-04-14T22:15:46.160Z,5.90
2019-04-14T22:18:21.547Z,5.80
2019-04-14T22:20:56.898Z,5.80
2019-04-14T22:23:32.229Z,5.90
2019-04-14T22:26:07.786Z,5.90
2019-04-14T22:28:43.251Z,5.90
2019-04-14T22:31:18.645Z,5.80
2019-04-14T22:33:54.013Z,5.70
2019-04-14T22:36:29.359Z,5.70
2019-04-14T22:39:07.808Z,5.70
2019-04-14T22:41:44.943Z,5.70
2019-04-14T22:44:20.340Z,5.70
2019-04-14T22:46:55.691Z,5.70
2019-04-14T22:49:31.166Z,5.70
2019-04-14T22:52:06.659Z,5.70
2019-04-14T22:54:42.026Z,5.60
2019-04-14T22:57:17.391Z,5.60
2019-04-14T22:59:52.814Z,5.50
2019-04-14T23:02:37.551Z,5.50
2019-04-14T23:05:30.817Z,5.50
2019-04-14T23:08:12.910Z,5.40
2019-04-14T23:11:05.627Z,5.40
2019-04-14T23:14:02.073Z,5.30
2019-04-14T23:17:06.295Z,5.30
2019-04-14T23:20:12.706Z,5.20
2019-04-14T23:23:07.013Z,5.20
2019-04-14T23:25:42.389Z,5.10
2019-04-14T23:28:17.775Z,5.10
2019-04-14T23:30:53.280Z,5.10
2019-04-14T23:33:28.613Z,5.10
2019-04-14T23:36:03.970Z,5.00
2019-04-14T23:38:39.476Z,5.00
2019-04-14T23:41:14.896Z,4.90
2019-04-14T23:43:50.286Z,4.90
2019-04-14T23:46:25.673Z,4.90
2019-04-14T23:49:01.071Z,4.90
2019-04-14T23:51:36.471Z,4.90
2019-04-14T23:54:11.874Z,4.90
2019-04-14T23:56:47.240Z,4.70
2019-04-14T23:59:22.627Z,4.80
